createdAt,value
2018-07-30T00:01:03.473Z,58.94
2018-07-30T00:03:32.302Z,58.56
2018-07-30T00:06:00.669Z,58.69
2018-07-30T00:08:29.066Z,58.80
2018-07-30T00:10:57.393Z,58.25
2018-07-30T00:13:25.748Z,59.86
2018-07-30T00:15:54.080Z,59.53
2018-07-30T00:18:22.549Z,60.49
2018-07-30T00:20:50.886Z,58.95
2018-07-30T00:23:19.232Z,60.46
2018-07-30T00:25:47.571Z,59.40
2018-07-30T00:28:15.903Z,59.87
2018-07-30T00:30:44.232Z,59.02
2018-07-30T00:33:12.577Z,59.75
2018-07-30T00:35:41.057Z,60.28
2018-07-30T00:38:09.388Z,60.08
2018-07-30T00:40:37.735Z,61.57
2018-07-30T00:43:06.056Z,60.68
2018-07-30T00:45:34.411Z,60.11
2018-07-30T00:48:02.752Z,61.20
2018-07-30T00:50:31.108Z,60.63
2018-07-30T00:52:59.449Z,60.05
2018-07-30T00:55:27.811Z,61.48
2018-07-30T00:57:56.324Z,60.74
2018-07-30T01:00:24.643Z,60.28
2018-07-30T01:02:52.977Z,61.52
2018-07-30T01:05:21.302Z,61.02
2018-07-30T01:07:49.648Z,61.35
2018-07-30T01:10:18.021Z,62.47
2018-07-30T01:12:46.355Z,60.85
2018-07-30T01:15:14.712Z,61.45
2018-07-30T01:17:43.056Z,62.43
2018-07-30T01:20:11.392Z,61.33
2018-07-30T01:22:39.747Z,60.53
2018-07-30T01:25:08.074Z,61.16
2018-07-30T01:27:36.422Z,61.17
2018-07-30T01:30:05.279Z,61.07
2018-07-30T01:32:33.595Z,62.03
2018-07-30T01:35:01.950Z,62.14
2018-07-30T01:37:30.265Z,61.82
2018-07-30T01:39:58.607Z,61.37
2018-07-30T01:42:26.954Z,61.85
2018-07-30T01:44:55.283Z,61.52
2018-07-30T01:47:23.605Z,63.19
2018-07-30T01:49:51.967Z,63.17
2018-07-30T01:52:20.315Z,63.08
2018-07-30T01:54:48.622Z,62.74
2018-07-30T01:57:16.951Z,62.13
2018-07-30T01:59:45.324Z,62.80
2018-07-30T02:02:13.653Z,62.39
2018-07-30T02:04:42.009Z,61.68
2018-07-30T02:07:10.390Z,62.23
2018-07-30T02:09:38.716Z,63.37
2018-07-30T02:12:07.078Z,63.11
2018-07-30T02:14:35.423Z,61.40
2018-07-30T02:17:03.773Z,61.91
2018-07-30T02:19:32.117Z,63.02
2018-07-30T02:22:00.437Z,61.61
2018-07-30T02:24:28.762Z,63.46
2018-07-30T02:26:57.108Z,63.14
2018-07-30T02:29:25.426Z,64.19
2018-07-30T02:31:53.749Z,64.25
2018-07-30T02:34:22.070Z,63.49
2018-07-30T02:36:50.410Z,62.67
2018-07-30T02:39:18.722Z,63.13
2018-07-30T02:41:47.074Z,61.97
2018-07-30T02:44:15.400Z,62.99
2018-07-30T02:46:43.751Z,63.47
2018-07-30T02:49:12.194Z,62.27
2018-07-30T02:51:40.568Z,63.82
2018-07-30T02:54:09.175Z,63.62
2018-07-30T02:56:37.537Z,63.09
2018-07-30T02:59:05.873Z,62.98
2018-07-30T03:01:34.218Z,63.37
2018-07-30T03:04:02.595Z,63.48
2018-07-30T03:06:30.973Z,62.88
2018-07-30T03:08:59.330Z,62.92
2018-07-30T03:11:27.660Z,64.17
2018-07-30T03:13:55.984Z,62.95
2018-07-30T03:16:24.332Z,64.29
2018-07-30T03:18:52.743Z,64.45
2018-07-30T03:21:21.044Z,64.46
2018-07-30T03:23:49.360Z,64.89
2018-07-30T03:26:17.727Z,64.59
2018-07-30T03:28:46.177Z,63.21
2018-07-30T03:31:14.530Z,65.00
2018-07-30T03:33:42.854Z,63.90
2018-07-30T03:36:11.197Z,64.23
2018-07-30T03:38:39.555Z,64.44
2018-07-30T03:41:07.893Z,64.97
2018-07-30T03:43:36.227Z,64.02
2018-07-30T03:46:04.561Z,64.62
2018-07-30T03:48:32.881Z,64.32
2018-07-30T03:51:01.233Z,65.10
2018-07-30T03:53:29.580Z,66.20
2018-07-30T03:55:57.950Z,65.42
2018-07-30T03:58:26.262Z,65.30
2018-07-30T04:00:54.571Z,65.09
2018-07-30T04:03:22.903Z,65.54
2018-07-30T04:05:51.467Z,64.35
2018-07-30T04:08:19.814Z,64.93
2018-07-30T04:10:48.123Z,65.53
2018-07-30T04:13:16.466Z,66.38
2018-07-30T04:15:44.799Z,64.67
2018-07-30T04:18:13.143Z,66.45
2018-07-30T04:20:41.505Z,66.44
2018-07-30T04:23:09.865Z,66.33
2018-07-30T04:25:38.244Z,65.10
2018-07-30T04:28:06.614Z,64.77
2018-07-30T04:30:35.024Z,66.75
2018-07-30T04:33:03.940Z,66.21
2018-07-30T04:35:32.271Z,66.93
2018-07-30T04:38:00.592Z,66.07
2018-07-30T04:40:28.938Z,66.43
2018-07-30T04:42:57.291Z,66.49
2018-07-30T04:45:25.626Z,66.98
2018-07-30T04:47:53.959Z,65.33
2018-07-30T04:50:22.369Z,66.49
2018-07-30T04:52:50.664Z,64.96
2018-07-30T04:55:19.027Z,66.00
2018-07-30T04:57:47.427Z,66.24
2018-07-30T05:00:15.808Z,66.93
2018-07-30T05:02:44.128Z,67.55
2018-07-30T05:05:12.519Z,66.01
2018-07-30T05:07:41.432Z,66.64
2018-07-30T05:10:09.747Z,66.15
2018-07-30T05:12:38.107Z,67.26
2018-07-30T05:15:06.466Z,65.51
2018-07-30T05:17:34.816Z,66.36
2018-07-30T05:20:03.142Z,66.04
2018-07-30T05:22:31.522Z,66.63
2018-07-30T05:24:59.908Z,65.84
2018-07-30T05:27:28.264Z,66.58
2018-07-30T05:29:56.629Z,65.76
2018-07-30T05:32:25.038Z,66.17
2018-07-30T05:34:53.414Z,66.64
2018-07-30T05:37:21.816Z,67.34
2018-07-30T05:39:50.170Z,67.26
2018-07-30T05:42:18.490Z,67.01
2018-07-30T05:44:46.831Z,67.36
2018-07-30T05:47:15.164Z,67.04
2018-07-30T05:49:43.469Z,68.04
2018-07-30T05:52:11.802Z,68.47
2018-07-30T05:54:40.143Z,67.09
2018-07-30T05:57:08.721Z,66.53
2018-07-30T05:59:37.167Z,66.48
2018-07-30T06:02:05.419Z,66.71
2018-07-30T06:04:33.757Z,67.45
2018-07-30T06:07:02.118Z,66.81
2018-07-30T06:09:30.467Z,66.93
2018-07-30T06:11:58.806Z,68.16
2018-07-30T06:14:27.126Z,67.70
2018-07-30T06:16:55.456Z,66.99
2018-07-30T06:19:23.779Z,67.84
2018-07-30T06:21:52.117Z,66.73
2018-07-30T06:24:20.472Z,67.66
2018-07-30T06:26:48.819Z,66.97
2018-07-30T06:29:17.151Z,67.89
2018-07-30T06:31:45.514Z,67.61
2018-07-30T06:34:13.878Z,66.62
2018-07-30T06:36:42.256Z,66.75
2018-07-30T06:39:11.250Z,66.49
2018-07-30T06:41:39.841Z,66.86
2018-07-30T06:44:08.213Z,66.19
2018-07-30T06:46:36.929Z,66.35
2018-07-30T06:49:05.846Z,65.92
2018-07-30T06:51:34.257Z,65.49
2018-07-30T06:54:02.577Z,65.37
2018-07-30T06:56:30.912Z,66.07
2018-07-30T06:58:59.240Z,65.75
2018-07-30T07:01:27.580Z,65.76
2018-07-30T07:03:55.931Z,65.49
2018-07-30T07:06:24.281Z,66.05
2018-07-30T07:08:52.639Z,65.93
2018-07-30T07:11:20.995Z,65.80
2018-07-30T07:13:49.335Z,63.01
2018-07-30T07:16:17.714Z,62.37
2018-07-30T07:18:46.063Z,63.64
2018-07-30T07:21:14.476Z,63.29
2018-07-30T07:23:42.832Z,62.59
2018-07-30T07:26:11.186Z,63.29
2018-07-30T07:28:39.553Z,62.62
2018-07-30T07:31:07.901Z,61.02
2018-07-30T07:33:36.236Z,57.67
2018-07-30T07:36:04.712Z,59.65
2018-07-30T07:38:33.131Z,60.23
2018-07-30T07:41:01.465Z,59.57
2018-07-30T07:43:29.819Z,58.05
2018-07-30T07:45:58.194Z,56.01
2018-07-30T07:48:26.515Z,53.66
2018-07-30T07:50:55.144Z,50.79
2018-07-30T07:53:23.235Z,49.80
2018-07-30T07:55:51.556Z,48.21
2018-07-30T07:58:19.940Z,42.66
2018-07-30T08:00:48.266Z,42.01
2018-07-30T08:03:16.644Z,47.38
2018-07-30T08:05:45.026Z,46.68
2018-07-30T08:08:13.372Z,40.38
2018-07-30T08:10:41.709Z,43.33
2018-07-30T08:13:10.077Z,43.24
2018-07-30T08:15:38.429Z,37.21
2018-07-30T08:18:06.780Z,38.61
2018-07-30T08:20:35.157Z,37.50
2018-07-30T08:23:03.487Z,37.88
2018-07-30T08:25:31.848Z,39.25
2018-07-30T08:28:00.227Z,42.28
2018-07-30T08:30:28.560Z,38.28
2018-07-30T08:32:56.889Z,36.24
2018-07-30T08:35:25.230Z,39.13
2018-07-30T08:37:53.611Z,36.13
2018-07-30T08:40:21.994Z,37.41
2018-07-30T08:42:50.326Z,33.96
2018-07-30T08:45:18.676Z,34.21
2018-07-30T08:47:47.055Z,36.63
2018-07-30T08:50:15.433Z,33.99
2018-07-30T08:52:43.783Z,35.45
2018-07-30T08:55:12.142Z,36.00
2018-07-30T08:57:40.488Z,33.78
2018-07-30T09:00:09.699Z,34.34
2018-07-30T09:02:38.485Z,31.57
2018-07-30T09:05:06.936Z,34.00
2018-07-30T09:07:35.444Z,34.20
2018-07-30T09:10:03.824Z,33.40
2018-07-30T09:12:32.188Z,30.38
2018-07-30T09:15:00.553Z,31.38
2018-07-30T09:17:28.909Z,30.74
2018-07-30T09:19:57.246Z,30.58
2018-07-30T09:22:25.659Z,31.73
2018-07-30T09:24:54.173Z,30.46
2018-07-30T09:27:22.659Z,31.10
2018-07-30T09:29:51.013Z,27.92
2018-07-30T09:32:19.331Z,28.97
2018-07-30T09:34:47.663Z,28.19
2018-07-30T09:37:16.038Z,29.90
2018-07-30T09:39:44.371Z,30.74
2018-07-30T09:42:12.748Z,30.72
2018-07-30T09:44:41.089Z,30.51
2018-07-30T09:47:09.514Z,30.51
2018-07-30T09:49:37.861Z,30.15
2018-07-30T09:52:06.241Z,29.01
2018-07-30T09:54:34.588Z,30.13
2018-07-30T09:57:03.003Z,29.87
2018-07-30T09:59:31.339Z,28.45
2018-07-30T10:01:59.670Z,29.50
2018-07-30T10:04:28.009Z,28.04
2018-07-30T10:06:56.464Z,29.24
2018-07-30T10:09:24.774Z,27.87
2018-07-30T10:11:55.958Z,27.66
2018-07-30T10:14:24.894Z,26.56
2018-07-30T10:16:53.745Z,27.13
2018-07-30T10:19:22.059Z,25.72
2018-07-30T10:21:50.408Z,25.45
2018-07-30T10:24:18.745Z,24.95
2018-07-30T10:26:47.078Z,23.36
2018-07-30T10:29:15.468Z,24.70
2018-07-30T10:31:43.820Z,23.03
2018-07-30T10:34:12.146Z,22.12
2018-07-30T10:36:40.472Z,23.55
2018-07-30T10:39:09.350Z,23.41
2018-07-30T10:41:37.683Z,23.04
2018-07-30T10:44:06.048Z,23.70
2018-07-30T10:46:34.367Z,23.68
2018-07-30T10:49:02.687Z,24.21
2018-07-30T10:51:31.021Z,23.63
2018-07-30T10:53:59.414Z,24.70
2018-07-30T10:56:27.729Z,25.45
2018-07-30T10:58:56.074Z,24.58
2018-07-30T11:01:24.446Z,24.27
2018-07-30T11:03:53.088Z,27.01
2018-07-30T11:06:21.405Z,27.67
2018-07-30T11:08:49.743Z,26.80
2018-07-30T11:11:18.089Z,29.79
2018-07-30T11:13:46.405Z,27.98
2018-07-30T11:16:14.738Z,28.81
2018-07-30T11:18:43.070Z,28.87
2018-07-30T11:21:11.423Z,28.87
2018-07-30T11:23:39.755Z,32.00
2018-07-30T11:26:08.108Z,29.86
2018-07-30T11:28:36.520Z,31.37
2018-07-30T11:31:04.876Z,29.82
2018-07-30T11:33:33.230Z,30.28
2018-07-30T11:36:01.576Z,31.16
2018-07-30T11:38:29.919Z,31.40
2018-07-30T11:40:58.237Z,30.92
2018-07-30T11:43:26.575Z,31.44
2018-07-30T11:45:54.888Z,32.01
2018-07-30T11:48:23.299Z,33.02
2018-07-30T11:50:51.615Z,33.60
2018-07-30T11:53:19.956Z,33.05
2018-07-30T11:55:49.226Z,34.61
2018-07-30T11:58:17.792Z,33.74
2018-07-30T12:00:46.151Z,34.56
2018-07-30T12:03:14.499Z,34.87
2018-07-30T12:05:43.701Z,34.75
2018-07-30T12:08:12.055Z,33.98
2018-07-30T12:10:40.436Z,33.92
2018-07-30T12:13:08.833Z,33.77
2018-07-30T12:15:37.171Z,34.80
2018-07-30T12:18:05.510Z,34.03
2018-07-30T12:20:33.829Z,33.96
2018-07-30T12:23:02.172Z,33.46
2018-07-30T12:25:30.522Z,34.05
2018-07-30T12:27:58.860Z,33.63
2018-07-30T12:30:27.215Z,33.56
2018-07-30T12:32:55.552Z,33.03
2018-07-30T12:35:23.899Z,33.38
2018-07-30T12:37:52.244Z,33.66
2018-07-30T12:40:20.608Z,34.48
2018-07-30T12:42:48.948Z,34.42
2018-07-30T12:45:21.474Z,34.72
2018-07-30T12:47:49.807Z,34.14
2018-07-30T12:50:18.147Z,34.21
2018-07-30T12:52:46.474Z,35.20
2018-07-30T12:55:14.820Z,33.87
2018-07-30T12:57:43.233Z,34.22
2018-07-30T13:00:11.578Z,34.90
2018-07-30T13:02:39.924Z,34.82
2018-07-30T13:05:08.267Z,34.72
2018-07-30T13:07:36.617Z,34.58
2018-07-30T13:10:04.986Z,34.68
2018-07-30T13:12:33.337Z,34.68
2018-07-30T13:15:01.680Z,35.29
2018-07-30T13:17:30.013Z,34.67
2018-07-30T13:19:58.319Z,34.07
2018-07-30T13:22:26.674Z,34.79
2018-07-30T13:24:55.027Z,33.35
2018-07-30T13:27:23.435Z,33.88
2018-07-30T13:29:51.823Z,34.07
2018-07-30T13:32:20.165Z,33.23
2018-07-30T13:34:48.534Z,33.17
2018-07-30T13:37:16.885Z,32.90
2018-07-30T13:39:45.268Z,33.50
2018-07-30T13:42:13.603Z,34.17
2018-07-30T13:44:42.025Z,34.88
2018-07-30T13:47:10.365Z,34.37
2018-07-30T13:49:38.708Z,35.36
2018-07-30T13:52:07.064Z,34.79
2018-07-30T13:54:35.493Z,34.93
2018-07-30T13:57:03.817Z,34.83
2018-07-30T13:59:32.202Z,34.61
2018-07-30T14:02:00.580Z,34.31
2018-07-30T14:04:28.958Z,35.18
2018-07-30T14:06:57.296Z,34.46
2018-07-30T14:09:27.049Z,34.58
2018-07-30T14:11:55.422Z,34.92
2018-07-30T14:14:23.800Z,34.66
2018-07-30T14:16:52.240Z,34.96
2018-07-30T14:19:20.619Z,35.09
2018-07-30T14:21:48.974Z,35.00
2018-07-30T14:24:17.318Z,36.09
2018-07-30T14:26:45.653Z,35.38
2018-07-30T14:29:14.068Z,35.53
2018-07-30T14:31:42.367Z,35.53
2018-07-30T14:34:10.733Z,35.68
2018-07-30T14:36:39.112Z,35.39
2018-07-30T14:39:09.184Z,35.77
2018-07-30T14:41:37.608Z,35.48
2018-07-30T14:44:05.989Z,35.65
2018-07-30T14:46:34.353Z,35.70
2018-07-30T14:49:02.708Z,35.78
2018-07-30T14:51:31.088Z,35.57
2018-07-30T14:53:59.493Z,35.50
2018-07-30T14:56:27.822Z,35.44
2018-07-30T14:58:56.170Z,35.69
2018-07-30T15:01:24.509Z,35.73
2018-07-30T15:03:52.850Z,36.08
2018-07-30T15:06:21.168Z,35.54
2018-07-30T15:08:49.528Z,35.67
2018-07-30T15:11:17.869Z,35.81
2018-07-30T15:13:46.216Z,35.54
2018-07-30T15:16:14.601Z,35.24
2018-07-30T15:18:42.944Z,35.56
2018-07-30T15:21:11.328Z,35.55
2018-07-30T15:23:39.647Z,35.78
2018-07-30T15:26:07.980Z,35.59
2018-07-30T15:28:36.329Z,34.96
2018-07-30T15:31:04.670Z,35.83
2018-07-30T15:33:33.056Z,35.51
2018-07-30T15:36:01.386Z,35.88
2018-07-30T15:38:29.703Z,36.21
2018-07-30T15:40:58.018Z,35.85
2018-07-30T15:43:26.824Z,35.67
2018-07-30T15:45:55.191Z,36.23
2018-07-30T15:48:23.508Z,36.06
2018-07-30T15:50:51.852Z,35.71
2018-07-30T15:53:20.280Z,35.94
2018-07-30T15:55:48.613Z,35.59
2018-07-30T15:58:16.948Z,35.89
2018-07-30T16:00:45.279Z,35.75
2018-07-30T16:03:13.662Z,35.82
2018-07-30T16:05:42.124Z,35.68
2018-07-30T16:08:10.380Z,36.05
2018-07-30T16:10:38.704Z,35.86
2018-07-30T16:13:07.079Z,36.27
2018-07-30T16:15:35.416Z,36.38
2018-07-30T16:18:03.777Z,36.16
2018-07-30T16:20:32.125Z,36.09
2018-07-30T16:23:00.468Z,35.94
2018-07-30T16:25:28.804Z,36.16
2018-07-30T16:27:57.159Z,36.35
2018-07-30T16:30:25.550Z,36.20
2018-07-30T16:32:53.900Z,36.29
2018-07-30T16:35:22.268Z,35.79
2018-07-30T16:37:50.765Z,35.78
2018-07-30T16:40:19.117Z,35.56
2018-07-30T16:42:47.723Z,35.67
2018-07-30T16:45:16.081Z,35.93
2018-07-30T16:47:44.429Z,35.92
2018-07-30T16:50:12.792Z,36.71
2018-07-30T16:52:41.148Z,36.05
2018-07-30T16:55:09.502Z,36.37
2018-07-30T16:57:37.890Z,36.76
2018-07-30T17:00:08.658Z,36.62
2018-07-30T17:02:37.028Z,36.78
2018-07-30T17:05:05.844Z,36.31
2018-07-30T17:07:34.213Z,36.74
2018-07-30T17:10:02.576Z,36.48
2018-07-30T17:12:30.949Z,36.67
2018-07-30T17:14:59.295Z,36.69
2018-07-30T17:17:27.612Z,36.51
2018-07-30T17:19:56.051Z,36.94
2018-07-30T17:22:24.383Z,36.46
2018-07-30T17:24:52.713Z,36.40
2018-07-30T17:27:21.024Z,36.66
2018-07-30T17:29:49.456Z,36.75
2018-07-30T17:32:17.776Z,36.32
2018-07-30T17:34:46.133Z,36.63
2018-07-30T17:37:14.464Z,36.68
2018-07-30T17:39:42.806Z,36.58
2018-07-30T17:42:11.158Z,36.35
2018-07-30T17:44:39.529Z,36.07
2018-07-30T17:47:07.944Z,36.21
2018-07-30T17:49:36.291Z,36.09
2018-07-30T17:52:04.632Z,36.02
2018-07-30T17:54:32.997Z,36.37
2018-07-30T17:57:01.325Z,35.85
2018-07-30T17:59:29.659Z,35.78
2018-07-30T18:01:57.992Z,35.45
2018-07-30T18:04:26.360Z,35.11
2018-07-30T18:06:54.670Z,35.41
2018-07-30T18:09:22.999Z,35.57
2018-07-30T18:11:51.345Z,35.07
2018-07-30T18:14:19.674Z,34.70
2018-07-30T18:16:48.017Z,34.63
2018-07-30T18:19:16.361Z,34.43
2018-07-30T18:21:44.719Z,34.43
2018-07-30T18:24:13.087Z,34.19
2018-07-30T18:26:41.439Z,34.28
2018-07-30T18:29:09.809Z,34.33
2018-07-30T18:31:38.152Z,34.25
2018-07-30T18:34:06.472Z,34.39
2018-07-30T18:36:34.879Z,34.43
2018-07-30T18:39:03.365Z,34.43
2018-07-30T18:41:31.710Z,34.34
2018-07-30T18:44:00.034Z,34.20
2018-07-30T18:46:28.416Z,34.35
2018-07-30T18:48:56.749Z,34.42
2018-07-30T18:51:25.120Z,34.12
2018-07-30T18:53:53.447Z,34.32
2018-07-30T18:56:21.788Z,34.32
2018-07-30T18:58:50.133Z,34.33
2018-07-30T19:01:18.463Z,34.41
2018-07-30T19:03:46.948Z,34.77
2018-07-30T19:06:15.296Z,35.01
2018-07-30T19:08:43.632Z,35.18
2018-07-30T19:11:11.965Z,35.26
2018-07-30T19:13:40.297Z,35.36
2018-07-30T19:16:08.679Z,35.56
2018-07-30T19:18:37.009Z,35.06
2018-07-30T19:21:05.426Z,35.37
2018-07-30T19:23:33.770Z,35.67
2018-07-30T19:26:02.120Z,35.95
2018-07-30T19:28:30.454Z,35.68
2018-07-30T19:30:58.770Z,36.04
2018-07-30T19:33:27.121Z,36.05
2018-07-30T19:35:55.464Z,36.16
2018-07-30T19:38:23.889Z,35.96
2018-07-30T19:40:52.233Z,36.05
2018-07-30T19:43:20.594Z,36.17
2018-07-30T19:45:48.926Z,36.48
2018-07-30T19:48:17.302Z,36.27
2018-07-30T19:50:45.722Z,36.73
2018-07-30T19:53:14.067Z,36.65
2018-07-30T19:55:42.444Z,37.91
2018-07-30T19:58:10.991Z,37.53
2018-07-30T20:00:39.180Z,37.06
2018-07-30T20:03:07.565Z,37.44
2018-07-30T20:05:36.007Z,36.87
2018-07-30T20:08:04.359Z,37.23
2018-07-30T20:10:32.705Z,36.67
2018-07-30T20:13:01.116Z,36.87
2018-07-30T20:15:29.479Z,36.83
2018-07-30T20:17:58.264Z,36.43
2018-07-30T20:20:26.592Z,36.59
2018-07-30T20:22:54.969Z,36.77
2018-07-30T20:25:23.349Z,36.48
2018-07-30T20:27:51.698Z,36.71
2018-07-30T20:30:20.110Z,36.55
2018-07-30T20:32:48.456Z,36.64
2018-07-30T20:35:16.812Z,36.11
2018-07-30T20:37:45.975Z,36.48
2018-07-30T20:40:14.577Z,36.31
2018-07-30T20:42:43.039Z,36.25
2018-07-30T20:45:11.420Z,36.19
2018-07-30T20:47:39.756Z,36.59
2018-07-30T20:50:08.108Z,36.22
2018-07-30T20:52:36.476Z,36.12
2018-07-30T20:55:04.891Z,36.18
2018-07-30T20:57:33.370Z,36.47
2018-07-30T21:00:01.750Z,35.78
2018-07-30T21:02:30.134Z,35.73
2018-07-30T21:04:58.507Z,36.52
2018-07-30T21:07:26.886Z,36.60
2018-07-30T21:09:55.354Z,36.50
2018-07-30T21:12:23.715Z,36.23
2018-07-30T21:14:52.097Z,36.69
2018-07-30T21:17:20.507Z,36.78
2018-07-30T21:19:48.845Z,36.95
2018-07-30T21:22:17.224Z,36.62
2018-07-30T21:24:45.566Z,36.96
2018-07-30T21:27:13.881Z,37.19
2018-07-30T21:29:42.226Z,37.35
2018-07-30T21:32:10.574Z,36.92
2018-07-30T21:34:38.915Z,37.68
2018-07-30T21:37:07.257Z,38.58
2018-07-30T21:39:35.609Z,38.26
2018-07-30T21:42:03.949Z,38.15
2018-07-30T21:44:32.295Z,38.63
2018-07-30T21:47:00.613Z,38.07
2018-07-30T21:49:28.951Z,39.32
2018-07-30T21:51:57.268Z,39.78
2018-07-30T21:54:25.619Z,40.77
2018-07-30T21:56:53.985Z,40.80
2018-07-30T21:59:22.463Z,41.01
2018-07-30T22:01:50.815Z,41.13
2018-07-30T22:04:19.193Z,40.66
2018-07-30T22:06:47.576Z,41.06
2018-07-30T22:09:15.956Z,40.92
2018-07-30T22:11:44.328Z,40.56
2018-07-30T22:14:12.712Z,41.55
2018-07-30T22:16:41.055Z,41.00
2018-07-30T22:19:09.431Z,42.56
2018-07-30T22:21:37.845Z,41.44
2018-07-30T22:24:06.384Z,41.80
2018-07-30T22:26:34.722Z,42.13
2018-07-30T22:29:03.085Z,43.51
2018-07-30T22:31:31.432Z,41.70
2018-07-30T22:33:59.759Z,41.41
2018-07-30T22:36:28.123Z,43.49
2018-07-30T22:38:56.455Z,43.26
2018-07-30T22:41:24.808Z,42.10
2018-07-30T22:43:53.140Z,42.87
2018-07-30T22:46:21.501Z,43.90
2018-07-30T22:48:49.859Z,43.62
2018-07-30T22:51:18.219Z,42.53
2018-07-30T22:53:46.552Z,42.80
2018-07-30T22:56:14.871Z,43.11
2018-07-30T22:58:43.179Z,43.61
2018-07-30T23:01:11.532Z,43.84
2018-07-30T23:03:39.863Z,43.93
2018-07-30T23:06:08.206Z,43.85
2018-07-30T23:08:36.539Z,44.21
2018-07-30T23:11:04.880Z,44.29
2018-07-30T23:13:33.259Z,46.65
2018-07-30T23:16:01.658Z,44.98
2018-07-30T23:18:29.982Z,44.47
2018-07-30T23:20:58.310Z,45.84
2018-07-30T23:23:26.736Z,44.82
2018-07-30T23:25:55.053Z,44.85
2018-07-30T23:28:23.395Z,44.97
2018-07-30T23:30:51.725Z,44.73
2018-07-30T23:33:20.088Z,44.91
2018-07-30T23:35:48.434Z,45.36
2018-07-30T23:38:16.761Z,45.53
2018-07-30T23:40:45.093Z,47.27
2018-07-30T23:43:13.416Z,45.65
2018-07-30T23:45:42.788Z,46.01
2018-07-30T23:48:11.130Z,46.04
2018-07-30T23:50:39.456Z,46.85
2018-07-30T23:53:07.796Z,46.90
2018-07-30T23:55:36.129Z,47.11
2018-07-30T23:58:04.479Z,46.94
